sensor_id;sensor_type;location;lat;lon;timestamp;P1;durP1;ratioP1;P2;durP2;ratioP2
22184;SDS011;11258;52.516;13.318;2022-08-19T00:01:51;12.60;;;11.00;;
22184;SDS011;11258;52.516;13.318;2022-08-19T00:04:19;12.57;;;10.43;;
22184;SDS011;11258;52.516;13.318;2022-08-19T00:06:47;12.40;;;11.10;;
22184;SDS011;11258;52.516;13.318;2022-08-19T00:09:14;11.65;;;10.57;;
22184;SDS011;11258;52.516;13.318;2022-08-19T00:11:43;12.98;;;10.70;;
22184;SDS011;11258;52.516;13.318;2022-08-19T00:14:09;12.63;;;11.32;;
22184;SDS011;11258;52.516;13.318;2022-08-19T00:16:37;12.48;;;11.07;;
22184;SDS011;11258;52.516;13.318;2022-08-19T00:19:06;12.68;;;11.32;;
22184;SDS011;11258;52.516;13.318;2022-08-19T00:21:32;12.23;;;11.02;;
22184;SDS011;11258;52.516;13.318;2022-08-19T00:24:04;13.48;;;12.18;;
22184;SDS011;11258;52.516;13.318;2022-08-19T00:26:32;12.05;;;10.85;;
22184;SDS011;11258;52.516;13.318;2022-08-19T00:28:58;11.40;;;10.30;;
22184;SDS011;11258;52.516;13.318;2022-08-19T00:31:24;12.10;;;10.60;;
22184;SDS011;11258;52.516;13.318;2022-08-19T00:33:50;11.95;;;10.75;;
22184;SDS011;11258;52.516;13.318;2022-08-19T00:36:16;11.77;;;10.55;;
22184;SDS011;11258;52.516;13.318;2022-08-19T00:38:42;11.15;;;9.93;;
22184;SDS011;11258;52.516;13.318;2022-08-19T00:41:09;11.40;;;10.15;;
22184;SDS011;11258;52.516;13.318;2022-08-19T00:43:37;12.02;;;10.82;;
22184;SDS011;11258;52.516;13.318;2022-08-19T00:46:03;11.43;;;10.32;;
22184;SDS011;11258;52.516;13.318;2022-08-19T00:48:29;10.95;;;9.80;;
22184;SDS011;11258;52.516;13.318;2022-08-19T00:50:56;12.40;;;11.27;;
22184;SDS011;11258;52.516;13.318;2022-08-19T00:53:24;12.85;;;10.70;;
22184;SDS011;11258;52.516;13.318;2022-08-19T00:55:53;11.95;;;10.77;;
22184;SDS011;11258;52.516;13.318;2022-08-19T00:58:22;12.73;;;11.30;;
22184;SDS011;11258;52.516;13.318;2022-08-19T01:00:52;12.48;;;11.27;;
22184;SDS011;11258;52.516;13.318;2022-08-19T01:03:19;12.15;;;11.05;;
22184;SDS011;11258;52.516;13.318;2022-08-19T01:05:46;12.43;;;11.10;;
22184;SDS011;11258;52.516;13.318;2022-08-19T01:08:14;12.77;;;11.48;;
22184;SDS011;11258;52.516;13.318;2022-08-19T01:10:43;12.07;;;10.88;;
22184;SDS011;11258;52.516;13.318;2022-08-19T01:13:13;11.32;;;10.18;;
22184;SDS011;11258;52.516;13.318;2022-08-19T01:15:42;12.07;;;10.85;;
22184;SDS011;11258;52.516;13.318;2022-08-19T01:18:15;12.23;;;11.00;;
22184;SDS011;11258;52.516;13.318;2022-08-19T01:20:43;12.75;;;10.73;;
22184;SDS011;11258;52.516;13.318;2022-08-19T01:23:09;13.02;;;11.60;;
22184;SDS011;11258;52.516;13.318;2022-08-19T01:25:38;12.00;;;10.18;;
22184;SDS011;11258;52.516;13.318;2022-08-19T01:28:08;13.27;;;11.30;;
22184;SDS011;11258;52.516;13.318;2022-08-19T01:30:42;14.20;;;12.13;;
22184;SDS011;11258;52.516;13.318;2022-08-19T01:33:08;12.27;;;10.98;;
22184;SDS011;11258;52.516;13.318;2022-08-19T01:35:34;13.45;;;12.02;;
22184;SDS011;11258;52.516;13.318;2022-08-19T01:38:02;11.75;;;10.68;;
22184;SDS011;11258;52.516;13.318;2022-08-19T01:40:36;13.25;;;11.32;;
22184;SDS011;11258;52.516;13.318;2022-08-19T01:43:04;13.05;;;10.82;;
22184;SDS011;11258;52.516;13.318;2022-08-19T01:45:31;13.90;;;11.68;;
22184;SDS011;11258;52.516;13.318;2022-08-19T01:47:59;12.90;;;11.60;;
22184;SDS011;11258;52.516;13.318;2022-08-19T01:50:25;14.02;;;12.13;;
22184;SDS011;11258;52.516;13.318;2022-08-19T01:52:52;13.57;;;11.07;;
22184;SDS011;11258;52.516;13.318;2022-08-19T01:55:19;13.80;;;11.43;;
22184;SDS011;11258;52.516;13.318;2022-08-19T01:57:47;13.07;;;11.77;;
22184;SDS011;11258;52.516;13.318;2022-08-19T02:00:18;13.50;;;11.82;;
22184;SDS011;11258;52.516;13.318;2022-08-19T02:02:44;15.52;;;12.48;;
22184;SDS011;11258;52.516;13.318;2022-08-19T02:05:10;13.18;;;11.73;;
22184;SDS011;11258;52.516;13.318;2022-08-19T02:07:37;14.00;;;12.57;;
22184;SDS011;11258;52.516;13.318;2022-08-19T02:10:04;12.98;;;11.68;;
22184;SDS011;11258;52.516;13.318;2022-08-19T02:12:36;14.18;;;11.82;;
22184;SDS011;11258;52.516;13.318;2022-08-19T02:15:02;13.98;;;12.02;;
22184;SDS011;11258;52.516;13.318;2022-08-19T02:17:28;17.80;;;12.80;;
22184;SDS011;11258;52.516;13.318;2022-08-19T02:19:57;15.13;;;13.15;;
22184;SDS011;11258;52.516;13.318;2022-08-19T02:22:23;15.10;;;12.18;;
22184;SDS011;11258;52.516;13.318;2022-08-19T02:24:50;14.55;;;12.18;;
22184;SDS011;11258;52.516;13.318;2022-08-19T02:27:20;16.05;;;12.95;;
22184;SDS011;11258;52.516;13.318;2022-08-19T02:29:46;13.20;;;11.80;;
22184;SDS011;11258;52.516;13.318;2022-08-19T02:32:13;15.23;;;12.30;;
22184;SDS011;11258;52.516;13.318;2022-08-19T02:34:40;13.52;;;12.13;;
22184;SDS011;11258;52.516;13.318;2022-08-19T02:37:05;15.80;;;12.48;;
22184;SDS011;11258;52.516;13.318;2022-08-19T02:39:51;16.42;;;13.68;;
22184;SDS011;11258;52.516;13.318;2022-08-19T02:42:17;14.13;;;12.68;;
22184;SDS011;11258;52.516;13.318;2022-08-19T02:44:43;15.52;;;12.13;;
22184;SDS011;11258;52.516;13.318;2022-08-19T02:47:09;14.93;;;12.63;;
22184;SDS011;11258;52.516;13.318;2022-08-19T02:49:35;12.52;;;11.15;;
22184;SDS011;11258;52.516;13.318;2022-08-19T02:52:00;13.38;;;12.05;;
22184;SDS011;11258;52.516;13.318;2022-08-19T02:54:26;16.27;;;14.50;;
22184;SDS011;11258;52.516;13.318;2022-08-19T02:56:52;14.07;;;12.57;;
22184;SDS011;11258;52.516;13.318;2022-08-19T02:59:18;15.27;;;13.75;;
22184;SDS011;11258;52.516;13.318;2022-08-19T03:01:43;17.30;;;13.40;;
22184;SDS011;11258;52.516;13.318;2022-08-19T03:04:11;16.58;;;14.63;;
22184;SDS011;11258;52.516;13.318;2022-08-19T03:06:39;14.45;;;13.05;;
22184;SDS011;11258;52.516;13.318;2022-08-19T03:09:08;17.17;;;14.75;;
22184;SDS011;11258;52.516;13.318;2022-08-19T03:11:35;16.15;;;14.43;;
22184;SDS011;11258;52.516;13.318;2022-08-19T03:14:01;18.70;;;15.38;;
22184;SDS011;11258;52.516;13.318;2022-08-19T03:16:29;17.33;;;14.70;;
22184;SDS011;11258;52.516;13.318;2022-08-19T03:18:57;15.38;;;13.60;;
22184;SDS011;11258;52.516;13.318;2022-08-19T03:21:26;14.60;;;13.20;;
22184;SDS011;11258;52.516;13.318;2022-08-19T03:23:53;16.20;;;13.85;;
22184;SDS011;11258;52.516;13.318;2022-08-19T03:26:19;15.98;;;13.63;;
22184;SDS011;11258;52.516;13.318;2022-08-19T03:28:45;17.17;;;13.57;;
22184;SDS011;11258;52.516;13.318;2022-08-19T03:31:15;14.85;;;13.25;;
22184;SDS011;11258;52.516;13.318;2022-08-19T03:33:42;14.95;;;13.45;;
22184;SDS011;11258;52.516;13.318;2022-08-19T03:38:42;15.82;;;14.27;;
22184;SDS011;11258;52.516;13.318;2022-08-19T03:41:36;17.38;;;15.38;;
22184;SDS011;11258;52.516;13.318;2022-08-19T03:44:02;17.10;;;15.15;;
22184;SDS011;11258;52.516;13.318;2022-08-19T03:46:30;16.58;;;14.40;;
22184;SDS011;11258;52.516;13.318;2022-08-19T03:48:57;17.23;;;15.38;;
22184;SDS011;11258;52.516;13.318;2022-08-19T03:53:50;16.15;;;14.27;;
22184;SDS011;11258;52.516;13.318;2022-08-19T03:56:17;15.10;;;13.50;;
22184;SDS011;11258;52.516;13.318;2022-08-19T03:58:43;16.95;;;14.23;;
22184;SDS011;11258;52.516;13.318;2022-08-19T04:01:10;14.43;;;13.02;;
22184;SDS011;11258;52.516;13.318;2022-08-19T04:03:38;15.63;;;13.60;;
22184;SDS011;11258;52.516;13.318;2022-08-19T04:06:11;16.90;;;14.90;;
22184;SDS011;11258;52.516;13.318;2022-08-19T04:08:40;15.65;;;14.13;;
22184;SDS011;11258;52.516;13.318;2022-08-19T04:11:08;17.77;;;14.02;;
22184;SDS011;11258;52.516;13.318;2022-08-19T04:13:35;15.02;;;13.43;;
22184;SDS011;11258;52.516;13.318;2022-08-19T04:16:00;16.40;;;13.90;;
22184;SDS011;11258;52.516;13.318;2022-08-19T04:18:26;14.93;;;13.48;;
22184;SDS011;11258;52.516;13.318;2022-08-19T04:20:54;16.75;;;14.52;;
22184;SDS011;11258;52.516;13.318;2022-08-19T04:23:20;16.30;;;14.30;;
22184;SDS011;11258;52.516;13.318;2022-08-19T04:25:46;15.68;;;14.07;;
22184;SDS011;11258;52.516;13.318;2022-08-19T04:28:12;14.52;;;13.07;;
22184;SDS011;11258;52.516;13.318;2022-08-19T04:30:39;15.02;;;13.50;;
22184;SDS011;11258;52.516;13.318;2022-08-19T04:33:09;14.98;;;13.43;;
22184;SDS011;11258;52.516;13.318;2022-08-19T04:35:37;17.55;;;13.98;;
22184;SDS011;11258;52.516;13.318;2022-08-19T04:38:04;14.68;;;13.15;;
22184;SDS011;11258;52.516;13.318;2022-08-19T04:40:30;15.15;;;13.55;;
22184;SDS011;11258;52.516;13.318;2022-08-19T04:43:14;14.65;;;12.60;;
22184;SDS011;11258;52.516;13.318;2022-08-19T04:45:41;14.55;;;13.00;;
22184;SDS011;11258;52.516;13.318;2022-08-19T04:48:08;14.68;;;13.15;;
22184;SDS011;11258;52.516;13.318;2022-08-19T04:50:34;16.55;;;14.52;;
22184;SDS011;11258;52.516;13.318;2022-08-19T04:53:00;12.85;;;11.65;;
22184;SDS011;11258;52.516;13.318;2022-08-19T04:55:26;14.18;;;12.40;;
22184;SDS011;11258;52.516;13.318;2022-08-19T04:57:51;13.25;;;11.85;;
22184;SDS011;11258;52.516;13.318;2022-08-19T05:00:17;12.73;;;11.13;;
22184;SDS011;11258;52.516;13.318;2022-08-19T05:02:43;14.02;;;11.93;;
22184;SDS011;11258;52.516;13.318;2022-08-19T05:05:08;12.52;;;11.23;;
22184;SDS011;11258;52.516;13.318;2022-08-19T05:07:35;11.52;;;10.32;;
22184;SDS011;11258;52.516;13.318;2022-08-19T05:10:01;11.18;;;10.05;;
22184;SDS011;11258;52.516;13.318;2022-08-19T05:12:29;10.45;;;9.32;;
22184;SDS011;11258;52.516;13.318;2022-08-19T05:14:55;10.43;;;9.32;;
22184;SDS011;11258;52.516;13.318;2022-08-19T05:17:22;14.18;;;9.48;;
22184;SDS011;11258;52.516;13.318;2022-08-19T05:19:47;9.15;;;8.25;;
22184;SDS011;11258;52.516;13.318;2022-08-19T05:22:31;9.50;;;8.52;;
22184;SDS011;11258;52.516;13.318;2022-08-19T05:24:59;10.65;;;9.57;;
22184;SDS011;11258;52.516;13.318;2022-08-19T05:27:33;9.15;;;8.23;;
22184;SDS011;11258;52.516;13.318;2022-08-19T05:29:59;12.77;;;9.38;;
22184;SDS011;11258;52.516;13.318;2022-08-19T05:32:25;9.45;;;8.55;;
22184;SDS011;11258;52.516;13.318;2022-08-19T05:34:50;11.60;;;10.48;;
22184;SDS011;11258;52.516;13.318;2022-08-19T05:37:16;11.43;;;9.07;;
22184;SDS011;11258;52.516;13.318;2022-08-19T05:39:42;9.30;;;8.50;;
22184;SDS011;11258;52.516;13.318;2022-08-19T05:42:08;10.27;;;9.27;;
22184;SDS011;11258;52.516;13.318;2022-08-19T05:44:37;10.25;;;9.18;;
22184;SDS011;11258;52.516;13.318;2022-08-19T05:47:09;10.68;;;8.95;;
22184;SDS011;11258;52.516;13.318;2022-08-19T05:49:36;10.02;;;9.05;;
22184;SDS011;11258;52.516;13.318;2022-08-19T05:52:06;10.55;;;9.50;;
22184;SDS011;11258;52.516;13.318;2022-08-19T05:54:36;11.65;;;9.80;;
22184;SDS011;11258;52.516;13.318;2022-08-19T05:57:05;10.55;;;9.55;;
22184;SDS011;11258;52.516;13.318;2022-08-19T05:59:30;11.60;;;10.05;;
22184;SDS011;11258;52.516;13.318;2022-08-19T06:01:56;13.80;;;10.20;;
22184;SDS011;11258;52.516;13.318;2022-08-19T06:04:22;12.10;;;10.82;;
22184;SDS011;11258;52.516;13.318;2022-08-19T06:06:49;12.35;;;10.57;;
22184;SDS011;11258;52.516;13.318;2022-08-19T06:09:16;11.18;;;10.10;;
22184;SDS011;11258;52.516;13.318;2022-08-19T06:11:50;11.38;;;10.10;;
22184;SDS011;11258;52.516;13.318;2022-08-19T06:14:20;11.10;;;10.10;;
22184;SDS011;11258;52.516;13.318;2022-08-19T06:16:48;11.43;;;10.32;;
22184;SDS011;11258;52.516;13.318;2022-08-19T06:19:17;11.93;;;10.70;;
22184;SDS011;11258;52.516;13.318;2022-08-19T06:21:44;12.65;;;10.32;;
22184;SDS011;11258;52.516;13.318;2022-08-19T06:24:12;13.55;;;11.85;;
22184;SDS011;11258;52.516;13.318;2022-08-19T06:26:41;13.23;;;9.77;;
22184;SDS011;11258;52.516;13.318;2022-08-19T06:29:08;13.48;;;10.65;;
22184;SDS011;11258;52.516;13.318;2022-08-19T06:31:35;11.57;;;10.10;;
22184;SDS011;11258;52.516;13.318;2022-08-19T06:34:02;12.50;;;11.15;;
22184;SDS011;11258;52.516;13.318;2022-08-19T06:36:33;11.98;;;10.82;;
22184;SDS011;11258;52.516;13.318;2022-08-19T06:39:03;12.30;;;10.85;;
22184;SDS011;11258;52.516;13.318;2022-08-19T06:41:34;11.93;;;10.73;;
22184;SDS011;11258;52.516;13.318;2022-08-19T06:44:03;13.25;;;12.00;;
22184;SDS011;11258;52.516;13.318;2022-08-19T06:46:29;13.43;;;12.05;;
22184;SDS011;11258;52.516;13.318;2022-08-19T06:48:56;13.65;;;12.23;;
22184;SDS011;11258;52.516;13.318;2022-08-19T06:51:22;13.85;;;12.30;;
22184;SDS011;11258;52.516;13.318;2022-08-19T06:53:49;14.32;;;12.85;;
22184;SDS011;11258;52.516;13.318;2022-08-19T06:56:18;13.52;;;12.20;;
22184;SDS011;11258;52.516;13.318;2022-08-19T06:58:45;14.73;;;13.35;;
22184;SDS011;11258;52.516;13.318;2022-08-19T07:01:11;14.35;;;12.95;;
22184;SDS011;11258;52.516;13.318;2022-08-19T07:03:38;15.77;;;13.82;;
22184;SDS011;11258;52.516;13.318;2022-08-19T07:06:05;15.45;;;13.35;;
22184;SDS011;11258;52.516;13.318;2022-08-19T07:08:33;15.52;;;13.85;;
22184;SDS011;11258;52.516;13.318;2022-08-19T07:10:59;15.13;;;13.43;;
22184;SDS011;11258;52.516;13.318;2022-08-19T07:13:24;15.55;;;14.02;;
22184;SDS011;11258;52.516;13.318;2022-08-19T07:15:50;14.85;;;13.35;;
22184;SDS011;11258;52.516;13.318;2022-08-19T07:18:17;15.90;;;13.25;;
22184;SDS011;11258;52.516;13.318;2022-08-19T07:20:44;15.93;;;14.25;;
22184;SDS011;11258;52.516;13.318;2022-08-19T07:23:10;15.25;;;13.75;;
22184;SDS011;11258;52.516;13.318;2022-08-19T07:25:36;15.48;;;13.25;;
22184;SDS011;11258;52.516;13.318;2022-08-19T07:28:03;14.68;;;13.27;;
22184;SDS011;11258;52.516;13.318;2022-08-19T07:30:29;16.38;;;13.55;;
22184;SDS011;11258;52.516;13.318;2022-08-19T07:32:55;14.95;;;13.20;;
22184;SDS011;11258;52.516;13.318;2022-08-19T07:35:21;13.95;;;12.65;;
22184;SDS011;11258;52.516;13.318;2022-08-19T07:37:48;15.38;;;13.82;;
22184;SDS011;11258;52.516;13.318;2022-08-19T07:40:14;15.40;;;13.85;;
22184;SDS011;11258;52.516;13.318;2022-08-19T07:42:40;15.75;;;14.02;;
22184;SDS011;11258;52.516;13.318;2022-08-19T07:45:06;16.00;;;14.43;;
22184;SDS011;11258;52.516;13.318;2022-08-19T07:47:33;16.50;;;14.93;;
22184;SDS011;11258;52.516;13.318;2022-08-19T07:49:58;16.70;;;14.75;;
22184;SDS011;11258;52.516;13.318;2022-08-19T07:52:24;16.27;;;14.68;;
22184;SDS011;11258;52.516;13.318;2022-08-19T07:54:50;16.98;;;15.38;;
22184;SDS011;11258;52.516;13.318;2022-08-19T07:57:16;17.88;;;15.27;;
22184;SDS011;11258;52.516;13.318;2022-08-19T07:59:43;39.47;;;18.60;;
22184;SDS011;11258;52.516;13.318;2022-08-19T08:02:09;22.15;;;16.67;;
22184;SDS011;11258;52.516;13.318;2022-08-19T08:04:35;21.48;;;16.48;;
22184;SDS011;11258;52.516;13.318;2022-08-19T08:07:19;18.42;;;16.52;;
22184;SDS011;11258;52.516;13.318;2022-08-19T08:10:04;18.60;;;16.75;;
22184;SDS011;11258;52.516;13.318;2022-08-19T08:12:33;20.05;;;17.77;;
22184;SDS011;11258;52.516;13.318;2022-08-19T08:15:06;20.38;;;17.75;;
22184;SDS011;11258;52.516;13.318;2022-08-19T08:17:34;17.40;;;15.60;;
22184;SDS011;11258;52.516;13.318;2022-08-19T08:20:02;16.92;;;15.15;;
22184;SDS011;11258;52.516;13.318;2022-08-19T08:22:31;18.23;;;16.00;;
22184;SDS011;11258;52.516;13.318;2022-08-19T08:25:16;18.05;;;16.17;;
22184;SDS011;11258;52.516;13.318;2022-08-19T08:27:44;18.60;;;16.70;;
22184;SDS011;11258;52.516;13.318;2022-08-19T08:30:14;19.02;;;17.08;;
22184;SDS011;11258;52.516;13.318;2022-08-19T08:32:42;16.65;;;14.95;;
22184;SDS011;11258;52.516;13.318;2022-08-19T08:35:10;18.27;;;15.38;;
22184;SDS011;11258;52.516;13.318;2022-08-19T08:37:37;19.77;;;17.77;;
22184;SDS011;11258;52.516;13.318;2022-08-19T08:40:09;17.38;;;15.68;;
22184;SDS011;11258;52.516;13.318;2022-08-19T08:42:46;18.13;;;16.23;;
22184;SDS011;11258;52.516;13.318;2022-08-19T08:45:29;17.50;;;15.60;;
22184;SDS011;11258;52.516;13.318;2022-08-19T08:47:57;18.27;;;16.38;;
22184;SDS011;11258;52.516;13.318;2022-08-19T08:50:29;19.30;;;16.80;;
22184;SDS011;11258;52.516;13.318;2022-08-19T08:53:00;18.27;;;16.38;;
22184;SDS011;11258;52.516;13.318;2022-08-19T08:55:28;19.88;;;18.02;;
22184;SDS011;11258;52.516;13.318;2022-08-19T09:00:32;19.27;;;17.38;;
22184;SDS011;11258;52.516;13.318;2022-08-19T09:03:01;19.73;;;17.73;;
22184;SDS011;11258;52.516;13.318;2022-08-19T09:05:40;17.58;;;15.88;;
22184;SDS011;11258;52.516;13.318;2022-08-19T09:10:49;18.33;;;16.25;;
22184;SDS011;11258;52.516;13.318;2022-08-19T09:16:01;17.02;;;15.10;;
22184;SDS011;11258;52.516;13.318;2022-08-19T09:18:38;18.08;;;15.63;;
22184;SDS011;11258;52.516;13.318;2022-08-19T09:21:06;17.70;;;15.85;;
22184;SDS011;11258;52.516;13.318;2022-08-19T09:23:33;19.92;;;17.92;;
22184;SDS011;11258;52.516;13.318;2022-08-19T09:26:00;19.52;;;17.60;;
22184;SDS011;11258;52.516;13.318;2022-08-19T09:28:26;17.50;;;15.52;;
22184;SDS011;11258;52.516;13.318;2022-08-19T09:30:52;15.57;;;14.18;;
22184;SDS011;11258;52.516;13.318;2022-08-19T09:33:18;16.50;;;14.73;;
22184;SDS011;11258;52.516;13.318;2022-08-19T09:35:44;33.78;;;15.63;;
22184;SDS011;11258;52.516;13.318;2022-08-19T09:38:11;17.20;;;15.20;;
22184;SDS011;11258;52.516;13.318;2022-08-19T09:40:36;21.85;;;13.65;;
22184;SDS011;11258;52.516;13.318;2022-08-19T09:43:02;16.52;;;14.52;;
22184;SDS011;11258;52.516;13.318;2022-08-19T09:45:28;16.40;;;14.73;;
22184;SDS011;11258;52.516;13.318;2022-08-19T09:47:54;15.80;;;14.20;;
22184;SDS011;11258;52.516;13.318;2022-08-19T09:50:20;15.93;;;14.32;;
22184;SDS011;11258;52.516;13.318;2022-08-19T09:52:46;16.98;;;15.25;;
22184;SDS011;11258;52.516;13.318;2022-08-19T09:55:12;16.02;;;14.48;;
22184;SDS011;11258;52.516;13.318;2022-08-19T09:57:38;17.23;;;15.52;;
22184;SDS011;11258;52.516;13.318;2022-08-19T10:00:05;18.08;;;15.27;;
22184;SDS011;11258;52.516;13.318;2022-08-19T10:02:33;16.80;;;15.07;;
22184;SDS011;11258;52.516;13.318;2022-08-19T10:04:59;17.02;;;15.20;;
22184;SDS011;11258;52.516;13.318;2022-08-19T10:07:43;16.02;;;14.30;;
22184;SDS011;11258;52.516;13.318;2022-08-19T10:10:09;16.90;;;15.30;;
22184;SDS011;11258;52.516;13.318;2022-08-19T10:12:35;19.65;;;14.40;;
22184;SDS011;11258;52.516;13.318;2022-08-19T10:15:02;16.45;;;14.77;;
22184;SDS011;11258;52.516;13.318;2022-08-19T10:17:29;21.55;;;18.17;;
22184;SDS011;11258;52.516;13.318;2022-08-19T10:19:54;16.63;;;14.93;;
22184;SDS011;11258;52.516;13.318;2022-08-19T10:22:20;16.75;;;15.05;;
22184;SDS011;11258;52.516;13.318;2022-08-19T10:24:45;15.68;;;13.95;;
22184;SDS011;11258;52.516;13.318;2022-08-19T10:27:11;14.73;;;13.27;;
22184;SDS011;11258;52.516;13.318;2022-08-19T10:29:38;14.85;;;13.35;;
22184;SDS011;11258;52.516;13.318;2022-08-19T10:32:05;17.63;;;14.18;;
22184;SDS011;11258;52.516;13.318;2022-08-19T10:34:33;14.75;;;13.25;;
22184;SDS011;11258;52.516;13.318;2022-08-19T10:37:01;14.80;;;13.38;;
22184;SDS011;11258;52.516;13.318;2022-08-19T10:39:30;15.80;;;14.07;;
22184;SDS011;11258;52.516;13.318;2022-08-19T10:42:03;15.82;;;14.27;;
22184;SDS011;11258;52.516;13.318;2022-08-19T10:44:31;15.00;;;13.50;;
22184;SDS011;11258;52.516;13.318;2022-08-19T10:46:57;15.82;;;14.23;;
22184;SDS011;11258;52.516;13.318;2022-08-19T10:49:23;15.40;;;13.90;;
22184;SDS011;11258;52.516;13.318;2022-08-19T10:51:49;16.35;;;14.65;;
22184;SDS011;11258;52.516;13.318;2022-08-19T10:54:33;17.08;;;15.27;;
22184;SDS011;11258;52.516;13.318;2022-08-19T10:57:17;17.27;;;15.50;;
22184;SDS011;11258;52.516;13.318;2022-08-19T10:59:43;17.52;;;15.35;;
22184;SDS011;11258;52.516;13.318;2022-08-19T11:02:09;17.80;;;15.52;;
22184;SDS011;11258;52.516;13.318;2022-08-19T11:04:37;15.88;;;14.23;;
22184;SDS011;11258;52.516;13.318;2022-08-19T11:07:04;16.55;;;14.93;;
22184;SDS011;11258;52.516;13.318;2022-08-19T11:09:31;15.90;;;14.38;;
22184;SDS011;11258;52.516;13.318;2022-08-19T11:12:02;16.92;;;15.23;;
22184;SDS011;11258;52.516;13.318;2022-08-19T11:14:28;16.45;;;14.25;;
22184;SDS011;11258;52.516;13.318;2022-08-19T11:16:57;16.63;;;14.93;;
22184;SDS011;11258;52.516;13.318;2022-08-19T11:19:23;14.93;;;13.48;;
22184;SDS011;11258;52.516;13.318;2022-08-19T11:21:49;15.48;;;13.98;;
22184;SDS011;11258;52.516;13.318;2022-08-19T11:24:20;14.02;;;12.43;;
22184;SDS011;11258;52.516;13.318;2022-08-19T11:26:48;14.80;;;13.15;;
22184;SDS011;11258;52.516;13.318;2022-08-19T11:29:17;15.45;;;13.80;;
22184;SDS011;11258;52.516;13.318;2022-08-19T11:31:46;15.00;;;13.55;;
22184;SDS011;11258;52.516;13.318;2022-08-19T11:34:15;13.98;;;12.60;;
22184;SDS011;11258;52.516;13.318;2022-08-19T11:36:43;14.30;;;12.88;;
22184;SDS011;11258;52.516;13.318;2022-08-19T11:39:11;16.15;;;12.88;;
22184;SDS011;11258;52.516;13.318;2022-08-19T11:41:39;14.88;;;12.52;;
22184;SDS011;11258;52.516;13.318;2022-08-19T11:44:05;13.68;;;12.35;;
22184;SDS011;11258;52.516;13.318;2022-08-19T11:46:32;14.98;;;12.75;;
22184;SDS011;11258;52.516;13.318;2022-08-19T11:48:59;13.57;;;12.15;;
22184;SDS011;11258;52.516;13.318;2022-08-19T11:51:28;13.32;;;12.05;;
22184;SDS011;11258;52.516;13.318;2022-08-19T11:53:55;13.27;;;11.88;;
22184;SDS011;11258;52.516;13.318;2022-08-19T11:56:21;13.98;;;12.68;;
22184;SDS011;11258;52.516;13.318;2022-08-19T11:58:48;17.17;;;13.10;;
22184;SDS011;11258;52.516;13.318;2022-08-19T12:01:14;14.35;;;12.85;;
22184;SDS011;11258;52.516;13.318;2022-08-19T12:03:43;14.63;;;13.10;;
22184;SDS011;11258;52.516;13.318;2022-08-19T12:06:11;14.57;;;11.55;;
22184;SDS011;11258;52.516;13.318;2022-08-19T12:08:40;12.95;;;11.68;;
22184;SDS011;11258;52.516;13.318;2022-08-19T12:11:08;13.00;;;11.70;;
22184;SDS011;11258;52.516;13.318;2022-08-19T12:13:34;11.45;;;10.35;;
22184;SDS011;11258;52.516;13.318;2022-08-19T12:16:01;12.82;;;11.38;;
22184;SDS011;11258;52.516;13.318;2022-08-19T12:18:37;15.73;;;10.32;;
22184;SDS011;11258;52.516;13.318;2022-08-19T12:21:08;10.77;;;9.77;;
22184;SDS011;11258;52.516;13.318;2022-08-19T12:23:35;11.60;;;10.48;;
22184;SDS011;11258;52.516;13.318;2022-08-19T12:26:02;10.30;;;9.38;;
22184;SDS011;11258;52.516;13.318;2022-08-19T12:28:28;10.90;;;9.80;;
22184;SDS011;11258;52.516;13.318;2022-08-19T12:30:55;10.07;;;9.15;;
22184;SDS011;11258;52.516;13.318;2022-08-19T12:33:21;12.40;;;11.10;;
22184;SDS011;11258;52.516;13.318;2022-08-19T12:35:50;11.13;;;10.13;;
22184;SDS011;11258;52.516;13.318;2022-08-19T12:38:15;11.18;;;10.13;;
22184;SDS011;11258;52.516;13.318;2022-08-19T12:40:41;9.85;;;8.90;;
22184;SDS011;11258;52.516;13.318;2022-08-19T12:43:10;9.80;;;8.85;;
22184;SDS011;11258;52.516;13.318;2022-08-19T12:45:36;9.70;;;8.02;;
22184;SDS011;11258;52.516;13.318;2022-08-19T12:48:02;11.15;;;10.05;;
22184;SDS011;11258;52.516;13.318;2022-08-19T12:50:29;10.00;;;8.70;;
22184;SDS011;11258;52.516;13.318;2022-08-19T12:52:55;10.18;;;8.98;;
22184;SDS011;11258;52.516;13.318;2022-08-19T12:55:22;9.65;;;8.65;;
22184;SDS011;11258;52.516;13.318;2022-08-19T12:57:47;9.95;;;8.95;;
22184;SDS011;11258;52.516;13.318;2022-08-19T13:00:17;10.25;;;8.93;;
22184;SDS011;11258;52.516;13.318;2022-08-19T13:02:46;10.40;;;9.32;;
22184;SDS011;11258;52.516;13.318;2022-08-19T13:05:16;9.85;;;8.93;;
22184;SDS011;11258;52.516;13.318;2022-08-19T13:07:45;12.25;;;10.30;;
22184;SDS011;11258;52.516;13.318;2022-08-19T13:10:12;10.90;;;9.93;;
22184;SDS011;11258;52.516;13.318;2022-08-19T13:12:40;11.68;;;10.40;;
22184;SDS011;11258;52.516;13.318;2022-08-19T13:15:06;10.73;;;9.65;;
22184;SDS011;11258;52.516;13.318;2022-08-19T13:17:33;11.75;;;10.63;;
22184;SDS011;11258;52.516;13.318;2022-08-19T13:19:59;11.75;;;10.63;;
22184;SDS011;11258;52.516;13.318;2022-08-19T13:22:25;12.00;;;10.90;;
22184;SDS011;11258;52.516;13.318;2022-08-19T13:24:50;12.77;;;11.50;;
22184;SDS011;11258;52.516;13.318;2022-08-19T13:27:16;11.98;;;10.77;;
22184;SDS011;11258;52.516;13.318;2022-08-19T13:29:41;14.63;;;11.00;;
22184;SDS011;11258;52.516;13.318;2022-08-19T13:32:26;12.82;;;11.15;;
22184;SDS011;11258;52.516;13.318;2022-08-19T13:35:10;11.80;;;10.70;;
22184;SDS011;11258;52.516;13.318;2022-08-19T13:37:37;12.45;;;11.20;;
22184;SDS011;11258;52.516;13.318;2022-08-19T13:40:15;12.63;;;11.32;;
22184;SDS011;11258;52.516;13.318;2022-08-19T13:42:47;12.48;;;11.13;;
22184;SDS011;11258;52.516;13.318;2022-08-19T13:45:15;12.50;;;11.38;;
22184;SDS011;11258;52.516;13.318;2022-08-19T13:47:47;12.15;;;11.05;;
22184;SDS011;11258;52.516;13.318;2022-08-19T13:50:16;12.98;;;11.55;;
22184;SDS011;11258;52.516;13.318;2022-08-19T13:52:44;13.48;;;11.40;;
22184;SDS011;11258;52.516;13.318;2022-08-19T13:55:11;11.48;;;10.38;;
22184;SDS011;11258;52.516;13.318;2022-08-19T13:57:37;11.63;;;10.50;;
22184;SDS011;11258;52.516;13.318;2022-08-19T14:00:04;14.23;;;11.95;;
22184;SDS011;11258;52.516;13.318;2022-08-19T14:02:33;12.93;;;11.82;;
22184;SDS011;11258;52.516;13.318;2022-08-19T14:05:00;12.50;;;10.98;;
22184;SDS011;11258;52.516;13.318;2022-08-19T14:07:25;11.95;;;10.90;;
22184;SDS011;11258;52.516;13.318;2022-08-19T14:09:51;13.45;;;11.65;;
22184;SDS011;11258;52.516;13.318;2022-08-19T14:12:20;12.60;;;11.35;;
22184;SDS011;11258;52.516;13.318;2022-08-19T14:14:46;12.07;;;10.93;;
22184;SDS011;11258;52.516;13.318;2022-08-19T14:17:12;13.20;;;11.15;;
22184;SDS011;11258;52.516;13.318;2022-08-19T14:19:38;11.95;;;10.75;;
22184;SDS011;11258;52.516;13.318;2022-08-19T14:22:03;12.18;;;11.07;;
22184;SDS011;11258;52.516;13.318;2022-08-19T14:24:30;12.00;;;10.90;;
22184;SDS011;11258;52.516;13.318;2022-08-19T14:26:57;12.73;;;10.68;;
22184;SDS011;11258;52.516;13.318;2022-08-19T14:29:23;13.80;;;12.50;;